sensor_id;sensor_type;location;lat;lon;timestamp;pressure;altitude;pressure_sealevel;temperature
8227;BMP180;4154;48.810;9.012;2023-04-15T00:00:06;96083.00;;;4.70
8227;BMP180;4154;48.810;9.012;2023-04-15T00:02:32;96087.00;;;4.70
8227;BMP180;4154;48.810;9.012;2023-04-15T00:04:58;96084.00;;;4.60
8227;BMP180;4154;48.810;9.012;2023-04-15T00:07:24;96096.00;;;4.70
8227;BMP180;4154;48.810;9.012;2023-04-15T00:09:49;96085.00;;;4.60
8227;BMP180;4154;48.810;9.012;2023-04-15T00:12:20;96090.00;;;4.50
8227;BMP180;4154;48.810;9.012;2023-04-15T00:14:46;96089.00;;;4.40
8227;BMP180;4154;48.810;9.012;2023-04-15T00:17:12;96079.00;;;4.30
8227;BMP180;4154;48.810;9.012;2023-04-15T00:19:38;96085.00;;;4.20
8227;BMP180;4154;48.810;9.012;2023-04-15T00:22:05;96080.00;;;4.30
8227;BMP180;4154;48.810;9.012;2023-04-15T00:24:31;96079.00;;;4.20
8227;BMP180;4154;48.810;9.012;2023-04-15T00:26:57;96083.00;;;4.20
8227;BMP180;4154;48.810;9.012;2023-04-15T00:29:23;96085.00;;;4.10
8227;BMP180;4154;48.810;9.012;2023-04-15T00:31:49;96091.00;;;4.20
8227;BMP180;4154;48.810;9.012;2023-04-15T00:34:15;96078.00;;;4.20
8227;BMP180;4154;48.810;9.012;2023-04-15T00:36:41;96087.00;;;4.20
8227;BMP180;4154;48.810;9.012;2023-04-15T00:39:06;96082.00;;;4.10
8227;BMP180;4154;48.810;9.012;2023-04-15T00:41:32;96079.00;;;4.10
8227;BMP180;4154;48.810;9.012;2023-04-15T00:44:00;96080.00;;;4.10
8227;BMP180;4154;48.810;9.012;2023-04-15T00:46:29;96076.00;;;4.10
8227;BMP180;4154;48.810;9.012;2023-04-15T00:48:55;96075.00;;;4.10
8227;BMP180;4154;48.810;9.012;2023-04-15T00:51:22;96071.00;;;4.10
8227;BMP180;4154;48.810;9.012;2023-04-15T00:53:49;96084.00;;;4.10
8227;BMP180;4154;48.810;9.012;2023-04-15T00:56:16;96078.00;;;4.10
8227;BMP180;4154;48.810;9.012;2023-04-15T00:58:43;96068.00;;;4.00
8227;BMP180;4154;48.810;9.012;2023-04-15T01:01:09;96081.00;;;3.90
8227;BMP180;4154;48.810;9.012;2023-04-15T01:03:36;96079.00;;;4.00
8227;BMP180;4154;48.810;9.012;2023-04-15T01:06:02;96081.00;;;4.00
8227;BMP180;4154;48.810;9.012;2023-04-15T01:08:29;96078.00;;;4.00
8227;BMP180;4154;48.810;9.012;2023-04-15T01:11:00;96078.00;;;3.80
8227;BMP180;4154;48.810;9.012;2023-04-15T01:13:29;96080.00;;;3.90
8227;BMP180;4154;48.810;9.012;2023-04-15T01:15:56;96072.00;;;3.90
8227;BMP180;4154;48.810;9.012;2023-04-15T01:18:23;96084.00;;;3.80
8227;BMP180;4154;48.810;9.012;2023-04-15T01:20:49;96072.00;;;3.80
8227;BMP180;4154;48.810;9.012;2023-04-15T01:23:15;96073.00;;;3.90
8227;BMP180;4154;48.810;9.012;2023-04-15T01:25:43;96076.00;;;3.80
8227;BMP180;4154;48.810;9.012;2023-04-15T01:28:09;96071.00;;;3.80
8227;BMP180;4154;48.810;9.012;2023-04-15T01:30:36;96078.00;;;3.70
8227;BMP180;4154;48.810;9.012;2023-04-15T01:33:02;96073.00;;;3.60
8227;BMP180;4154;48.810;9.012;2023-04-15T01:35:28;96075.00;;;3.60
8227;BMP180;4154;48.810;9.012;2023-04-15T01:37:54;96072.00;;;3.60
8227;BMP180;4154;48.810;9.012;2023-04-15T01:40:26;96074.00;;;3.60
8227;BMP180;4154;48.810;9.012;2023-04-15T01:42:52;96069.00;;;3.60
8227;BMP180;4154;48.810;9.012;2023-04-15T01:45:18;96074.00;;;3.50
8227;BMP180;4154;48.810;9.012;2023-04-15T01:47:43;96068.00;;;3.40
8227;BMP180;4154;48.810;9.012;2023-04-15T01:50:09;96068.00;;;3.50
8227;BMP180;4154;48.810;9.012;2023-04-15T01:52:36;96068.00;;;3.40
8227;BMP180;4154;48.810;9.012;2023-04-15T01:55:02;96065.00;;;3.50
8227;BMP180;4154;48.810;9.012;2023-04-15T01:57:28;96072.00;;;3.40
8227;BMP180;4154;48.810;9.012;2023-04-15T01:59:54;96069.00;;;3.40
8227;BMP180;4154;48.810;9.012;2023-04-15T02:02:20;96057.00;;;3.30
8227;BMP180;4154;48.810;9.012;2023-04-15T02:04:46;96066.00;;;3.30
8227;BMP180;4154;48.810;9.012;2023-04-15T02:07:12;96061.00;;;3.20
8227;BMP180;4154;48.810;9.012;2023-04-15T02:09:38;96070.00;;;3.30
8227;BMP180;4154;48.810;9.012;2023-04-15T02:12:04;96073.00;;;3.30
8227;BMP180;4154;48.810;9.012;2023-04-15T02:14:30;96067.00;;;3.30
8227;BMP180;4154;48.810;9.012;2023-04-15T02:16:56;96065.00;;;3.30
8227;BMP180;4154;48.810;9.012;2023-04-15T02:19:22;96071.00;;;3.30
8227;BMP180;4154;48.810;9.012;2023-04-15T02:21:47;96062.00;;;3.20
8227;BMP180;4154;48.810;9.012;2023-04-15T02:24:13;96074.00;;;3.20
8227;BMP180;4154;48.810;9.012;2023-04-15T02:26:39;96061.00;;;3.20
8227;BMP180;4154;48.810;9.012;2023-04-15T02:29:05;96056.00;;;3.20
8227;BMP180;4154;48.810;9.012;2023-04-15T02:31:31;96060.00;;;3.10
8227;BMP180;4154;48.810;9.012;2023-04-15T02:34:01;96057.00;;;3.10
8227;BMP180;4154;48.810;9.012;2023-04-15T02:36:30;96057.00;;;3.10
8227;BMP180;4154;48.810;9.012;2023-04-15T02:38:56;96055.00;;;3.10
8227;BMP180;4154;48.810;9.012;2023-04-15T02:41:22;96054.00;;;2.90
8227;BMP180;4154;48.810;9.012;2023-04-15T02:43:51;96053.00;;;3.00
8227;BMP180;4154;48.810;9.012;2023-04-15T02:46:17;96053.00;;;3.00
8227;BMP180;4154;48.810;9.012;2023-04-15T02:48:42;96054.00;;;2.90
8227;BMP180;4154;48.810;9.012;2023-04-15T02:51:19;96053.00;;;3.00
8227;BMP180;4154;48.810;9.012;2023-04-15T02:53:47;96051.00;;;3.00
8227;BMP180;4154;48.810;9.012;2023-04-15T02:56:13;96048.00;;;2.90
8227;BMP180;4154;48.810;9.012;2023-04-15T02:58:40;96046.00;;;2.80
8227;BMP180;4154;48.810;9.012;2023-04-15T03:01:06;96058.00;;;2.90
8227;BMP180;4154;48.810;9.012;2023-04-15T03:03:33;96047.00;;;2.90
8227;BMP180;4154;48.810;9.012;2023-04-15T03:05:59;96046.00;;;2.90
8227;BMP180;4154;48.810;9.012;2023-04-15T03:08:25;96055.00;;;2.90
8227;BMP180;4154;48.810;9.012;2023-04-15T03:10:51;96041.00;;;2.90
8227;BMP180;4154;48.810;9.012;2023-04-15T03:13:18;96045.00;;;2.90
8227;BMP180;4154;48.810;9.012;2023-04-15T03:15:46;96048.00;;;2.80
8227;BMP180;4154;48.810;9.012;2023-04-15T03:18:12;96059.00;;;2.80
8227;BMP180;4154;48.810;9.012;2023-04-15T03:20:38;96058.00;;;2.80
8227;BMP180;4154;48.810;9.012;2023-04-15T03:23:03;96043.00;;;2.70
8227;BMP180;4154;48.810;9.012;2023-04-15T03:25:29;96044.00;;;2.80
8227;BMP180;4154;48.810;9.012;2023-04-15T03:27:55;96046.00;;;2.70
8227;BMP180;4154;48.810;9.012;2023-04-15T03:30:21;96044.00;;;2.80
8227;BMP180;4154;48.810;9.012;2023-04-15T03:32:47;96049.00;;;2.80
8227;BMP180;4154;48.810;9.012;2023-04-15T03:35:13;96044.00;;;2.80
8227;BMP180;4154;48.810;9.012;2023-04-15T03:37:39;96038.00;;;2.80
8227;BMP180;4154;48.810;9.012;2023-04-15T03:40:06;96041.00;;;2.70
8227;BMP180;4154;48.810;9.012;2023-04-15T03:42:32;96044.00;;;2.70
8227;BMP180;4154;48.810;9.012;2023-04-15T03:44:58;96044.00;;;2.70
8227;BMP180;4154;48.810;9.012;2023-04-15T03:47:24;96044.00;;;2.60
8227;BMP180;4154;48.810;9.012;2023-04-15T03:49:50;96042.00;;;2.60
8227;BMP180;4154;48.810;9.012;2023-04-15T03:52:16;96042.00;;;2.60
8227;BMP180;4154;48.810;9.012;2023-04-15T03:54:42;96048.00;;;2.60
8227;BMP180;4154;48.810;9.012;2023-04-15T03:57:08;96039.00;;;2.60
8227;BMP180;4154;48.810;9.012;2023-04-15T03:59:34;96045.00;;;2.60
8227;BMP180;4154;48.810;9.012;2023-04-15T04:02:00;96046.00;;;2.60
8227;BMP180;4154;48.810;9.012;2023-04-15T04:04:25;96033.00;;;2.60
8227;BMP180;4154;48.810;9.012;2023-04-15T04:06:51;96036.00;;;2.60
8227;BMP180;4154;48.810;9.012;2023-04-15T04:09:17;96053.00;;;2.60
8227;BMP180;4154;48.810;9.012;2023-04-15T04:11:43;96036.00;;;2.60
8227;BMP180;4154;48.810;9.012;2023-04-15T04:14:10;96036.00;;;2.40
8227;BMP180;4154;48.810;9.012;2023-04-15T04:16:36;96049.00;;;2.50
8227;BMP180;4154;48.810;9.012;2023-04-15T04:19:01;96043.00;;;2.60
8227;BMP180;4154;48.810;9.012;2023-04-15T04:21:27;96049.00;;;2.50
8227;BMP180;4154;48.810;9.012;2023-04-15T04:23:52;96051.00;;;2.50
8227;BMP180;4154;48.810;9.012;2023-04-15T04:26:18;96046.00;;;2.50
8227;BMP180;4154;48.810;9.012;2023-04-15T04:28:44;96049.00;;;2.60
8227;BMP180;4154;48.810;9.012;2023-04-15T04:31:10;96050.00;;;2.50
8227;BMP180;4154;48.810;9.012;2023-04-15T04:33:36;96055.00;;;2.50
8227;BMP180;4154;48.810;9.012;2023-04-15T04:36:02;96054.00;;;2.50
8227;BMP180;4154;48.810;9.012;2023-04-15T04:38:28;96055.00;;;2.50
8227;BMP180;4154;48.810;9.012;2023-04-15T04:40:56;96048.00;;;2.30
8227;BMP180;4154;48.810;9.012;2023-04-15T04:43:22;96041.00;;;2.30
8227;BMP180;4154;48.810;9.012;2023-04-15T04:45:47;96053.00;;;2.40
8227;BMP180;4154;48.810;9.012;2023-04-15T04:48:13;96058.00;;;2.50
8227;BMP180;4154;48.810;9.012;2023-04-15T04:50:39;96060.00;;;2.40
8227;BMP180;4154;48.810;9.012;2023-04-15T04:53:05;96064.00;;;2.50
8227;BMP180;4154;48.810;9.012;2023-04-15T04:55:32;96055.00;;;2.40
8227;BMP180;4154;48.810;9.012;2023-04-15T04:57:57;96057.00;;;2.40
8227;BMP180;4154;48.810;9.012;2023-04-15T05:00:23;96060.00;;;2.40
8227;BMP180;4154;48.810;9.012;2023-04-15T05:02:49;96072.00;;;2.40
8227;BMP180;4154;48.810;9.012;2023-04-15T05:05:15;96063.00;;;2.30
8227;BMP180;4154;48.810;9.012;2023-04-15T05:07:41;96059.00;;;2.30
8227;BMP180;4154;48.810;9.012;2023-04-15T05:10:07;96059.00;;;2.30
8227;BMP180;4154;48.810;9.012;2023-04-15T05:12:34;96059.00;;;2.30
8227;BMP180;4154;48.810;9.012;2023-04-15T05:15:00;96064.00;;;2.30
8227;BMP180;4154;48.810;9.012;2023-04-15T05:17:26;96065.00;;;2.40
8227;BMP180;4154;48.810;9.012;2023-04-15T05:19:52;96059.00;;;2.30
8227;BMP180;4154;48.810;9.012;2023-04-15T05:22:18;96064.00;;;2.40
8227;BMP180;4154;48.810;9.012;2023-04-15T05:24:44;96069.00;;;2.40
8227;BMP180;4154;48.810;9.012;2023-04-15T05:27:09;96062.00;;;2.40
8227;BMP180;4154;48.810;9.012;2023-04-15T05:29:36;96063.00;;;2.40
8227;BMP180;4154;48.810;9.012;2023-04-15T05:32:02;96073.00;;;2.40
8227;BMP180;4154;48.810;9.012;2023-04-15T05:34:27;96071.00;;;2.40
8227;BMP180;4154;48.810;9.012;2023-04-15T05:36:53;96066.00;;;2.30
8227;BMP180;4154;48.810;9.012;2023-04-15T05:39:19;96072.00;;;2.40
8227;BMP180;4154;48.810;9.012;2023-04-15T05:41:45;96059.00;;;2.30
8227;BMP180;4154;48.810;9.012;2023-04-15T05:44:11;96066.00;;;2.40
8227;BMP180;4154;48.810;9.012;2023-04-15T05:46:36;96069.00;;;2.50
8227;BMP180;4154;48.810;9.012;2023-04-15T05:49:02;96075.00;;;2.50
8227;BMP180;4154;48.810;9.012;2023-04-15T05:51:28;96068.00;;;2.60
8227;BMP180;4154;48.810;9.012;2023-04-15T05:53:54;96069.00;;;2.60
8227;BMP180;4154;48.810;9.012;2023-04-15T05:56:20;96077.00;;;2.70
8227;BMP180;4154;48.810;9.012;2023-04-15T05:58:46;96078.00;;;2.70
8227;BMP180;4154;48.810;9.012;2023-04-15T06:01:12;96085.00;;;2.80
8227;BMP180;4154;48.810;9.012;2023-04-15T06:03:38;96083.00;;;2.80
8227;BMP180;4154;48.810;9.012;2023-04-15T06:06:04;96076.00;;;2.90
8227;BMP180;4154;48.810;9.012;2023-04-15T06:08:30;96078.00;;;3.00
8227;BMP180;4154;48.810;9.012;2023-04-15T06:10:57;96078.00;;;3.10
8227;BMP180;4154;48.810;9.012;2023-04-15T06:13:23;96087.00;;;3.20
8227;BMP180;4154;48.810;9.012;2023-04-15T06:15:49;96082.00;;;3.30
8227;BMP180;4154;48.810;9.012;2023-04-15T06:18:15;96086.00;;;3.30
8227;BMP180;4154;48.810;9.012;2023-04-15T06:20:41;96084.00;;;3.40
8227;BMP180;4154;48.810;9.012;2023-04-15T06:23:07;96094.00;;;3.50
8227;BMP180;4154;48.810;9.012;2023-04-15T06:25:33;96094.00;;;3.50
8227;BMP180;4154;48.810;9.012;2023-04-15T06:27:59;96095.00;;;3.60
8227;BMP180;4154;48.810;9.012;2023-04-15T06:30:24;96090.00;;;3.70
8227;BMP180;4154;48.810;9.012;2023-04-15T06:32:50;96089.00;;;3.80
8227;BMP180;4154;48.810;9.012;2023-04-15T06:35:17;96083.00;;;3.90
8227;BMP180;4154;48.810;9.012;2023-04-15T06:37:43;96086.00;;;3.90
8227;BMP180;4154;48.810;9.012;2023-04-15T06:40:09;96083.00;;;4.00
8227;BMP180;4154;48.810;9.012;2023-04-15T06:42:35;96098.00;;;4.10
8227;BMP180;4154;48.810;9.012;2023-04-15T06:45:03;96112.00;;;4.20
8227;BMP180;4154;48.810;9.012;2023-04-15T06:47:28;96107.00;;;4.20
8227;BMP180;4154;48.810;9.012;2023-04-15T06:49:54;96107.00;;;4.30
8227;BMP180;4154;48.810;9.012;2023-04-15T06:52:20;96115.00;;;4.40
8227;BMP180;4154;48.810;9.012;2023-04-15T06:54:47;96109.00;;;4.50
8227;BMP180;4154;48.810;9.012;2023-04-15T06:57:12;96112.00;;;4.60
8227;BMP180;4154;48.810;9.012;2023-04-15T06:59:38;96111.00;;;4.80
8227;BMP180;4154;48.810;9.012;2023-04-15T07:02:04;96117.00;;;4.90
8227;BMP180;4154;48.810;9.012;2023-04-15T07:04:30;96123.00;;;5.00
8227;BMP180;4154;48.810;9.012;2023-04-15T07:06:56;96113.00;;;5.10
8227;BMP180;4154;48.810;9.012;2023-04-15T07:09:23;96120.00;;;5.30
8227;BMP180;4154;48.810;9.012;2023-04-15T07:11:49;96113.00;;;5.40
8227;BMP180;4154;48.810;9.012;2023-04-15T07:14:16;96115.00;;;5.50
8227;BMP180;4154;48.810;9.012;2023-04-15T07:16:41;96117.00;;;5.60
8227;BMP180;4154;48.810;9.012;2023-04-15T07:19:07;96114.00;;;5.70
8227;BMP180;4154;48.810;9.012;2023-04-15T07:21:32;96110.00;;;5.80
8227;BMP180;4154;48.810;9.012;2023-04-15T07:23:58;96109.00;;;5.90
8227;BMP180;4154;48.810;9.012;2023-04-15T07:26:24;96115.00;;;6.00
8227;BMP180;4154;48.810;9.012;2023-04-15T07:28:50;96119.00;;;6.10
8227;BMP180;4154;48.810;9.012;2023-04-15T07:31:16;96118.00;;;6.20
8227;BMP180;4154;48.810;9.012;2023-04-15T07:33:42;96115.00;;;6.40
8227;BMP180;4154;48.810;9.012;2023-04-15T07:36:08;96114.00;;;6.50
8227;BMP180;4154;48.810;9.012;2023-04-15T07:38:35;96117.00;;;6.70
8227;BMP180;4154;48.810;9.012;2023-04-15T07:41:01;96109.00;;;6.80
8227;BMP180;4154;48.810;9.012;2023-04-15T07:43:27;96112.00;;;7.00
8227;BMP180;4154;48.810;9.012;2023-04-15T07:45:52;96106.00;;;7.10
8227;BMP180;4154;48.810;9.012;2023-04-15T07:48:18;96110.00;;;7.20
8227;BMP180;4154;48.810;9.012;2023-04-15T07:50:44;96103.00;;;7.40
8227;BMP180;4154;48.810;9.012;2023-04-15T07:53:10;96108.00;;;7.60
8227;BMP180;4154;48.810;9.012;2023-04-15T07:55:35;96115.00;;;7.80
8227;BMP180;4154;48.810;9.012;2023-04-15T07:58:01;96121.00;;;8.00
8227;BMP180;4154;48.810;9.012;2023-04-15T08:00:27;96108.00;;;8.20
8227;BMP180;4154;48.810;9.012;2023-04-15T08:02:53;96108.00;;;8.40
8227;BMP180;4154;48.810;9.012;2023-04-15T08:05:19;96102.00;;;8.50
8227;BMP180;4154;48.810;9.012;2023-04-15T08:07:44;96099.00;;;8.60
8227;BMP180;4154;48.810;9.012;2023-04-15T08:10:11;96105.00;;;8.70
8227;BMP180;4154;48.810;9.012;2023-04-15T08:12:37;96104.00;;;8.80
8227;BMP180;4154;48.810;9.012;2023-04-15T08:15:03;96106.00;;;9.00
8227;BMP180;4154;48.810;9.012;2023-04-15T08:17:29;96106.00;;;9.10
8227;BMP180;4154;48.810;9.012;2023-04-15T08:19:55;96104.00;;;9.10
8227;BMP180;4154;48.810;9.012;2023-04-15T08:22:21;96103.00;;;9.10
8227;BMP180;4154;48.810;9.012;2023-04-15T08:24:47;96117.00;;;9.20
8227;BMP180;4154;48.810;9.012;2023-04-15T08:27:13;96106.00;;;9.30
8227;BMP180;4154;48.810;9.012;2023-04-15T08:29:38;96104.00;;;9.40
8227;BMP180;4154;48.810;9.012;2023-04-15T08:32:05;96103.00;;;9.40
8227;BMP180;4154;48.810;9.012;2023-04-15T08:34:31;96107.00;;;9.50
8227;BMP180;4154;48.810;9.012;2023-04-15T08:36:57;96106.00;;;9.60
8227;BMP180;4154;48.810;9.012;2023-04-15T08:39:22;96109.00;;;9.80
8227;BMP180;4154;48.810;9.012;2023-04-15T08:42:00;96116.00;;;9.80
8227;BMP180;4154;48.810;9.012;2023-04-15T08:44:29;96117.00;;;10.00
8227;BMP180;4154;48.810;9.012;2023-04-15T08:47:00;96114.00;;;10.20
8227;BMP180;4154;48.810;9.012;2023-04-15T08:49:31;96115.00;;;10.30
8227;BMP180;4154;48.810;9.012;2023-04-15T08:52:00;96114.00;;;10.40
8227;BMP180;4154;48.810;9.012;2023-04-15T08:54:27;96117.00;;;10.40
8227;BMP180;4154;48.810;9.012;2023-04-15T08:56:53;96110.00;;;10.50
8227;BMP180;4154;48.810;9.012;2023-04-15T08:59:20;96106.00;;;10.60
8227;BMP180;4154;48.810;9.012;2023-04-15T09:01:48;96112.00;;;10.60
8227;BMP180;4154;48.810;9.012;2023-04-15T09:04:15;96107.00;;;10.70
8227;BMP180;4154;48.810;9.012;2023-04-15T09:06:41;96115.00;;;10.70
8227;BMP180;4154;48.810;9.012;2023-04-15T09:09:07;96122.00;;;10.80
8227;BMP180;4154;48.810;9.012;2023-04-15T09:11:33;96117.00;;;10.80
8227;BMP180;4154;48.810;9.012;2023-04-15T09:14:00;96124.00;;;10.80
8227;BMP180;4154;48.810;9.012;2023-04-15T09:16:26;96133.00;;;10.90
8227;BMP180;4154;48.810;9.012;2023-04-15T09:18:53;96133.00;;;11.00
8227;BMP180;4154;48.810;9.012;2023-04-15T09:21:19;96125.00;;;11.00
8227;BMP180;4154;48.810;9.012;2023-04-15T09:23:59;96140.00;;;11.10
8227;BMP180;4154;48.810;9.012;2023-04-15T09:26:34;96141.00;;;11.10
8227;BMP180;4154;48.810;9.012;2023-04-15T09:29:07;96140.00;;;11.10
8227;BMP180;4154;48.810;9.012;2023-04-15T09:31:35;96140.00;;;11.10
8227;BMP180;4154;48.810;9.012;2023-04-15T09:34:02;96149.00;;;11.20
8227;BMP180;4154;48.810;9.012;2023-04-15T09:36:27;96143.00;;;11.20
8227;BMP180;4154;48.810;9.012;2023-04-15T09:38:58;96153.00;;;11.30
8227;BMP180;4154;48.810;9.012;2023-04-15T09:41:25;96146.00;;;11.40
8227;BMP180;4154;48.810;9.012;2023-04-15T09:43:51;96154.00;;;11.50
8227;BMP180;4154;48.810;9.012;2023-04-15T09:46:17;96151.00;;;11.50
8227;BMP180;4154;48.810;9.012;2023-04-15T09:48:43;96150.00;;;11.50
8227;BMP180;4154;48.810;9.012;2023-04-15T09:51:09;96159.00;;;11.40
8227;BMP180;4154;48.810;9.012;2023-04-15T09:53:36;96165.00;;;11.60
8227;BMP180;4154;48.810;9.012;2023-04-15T09:56:03;96154.00;;;11.60
8227;BMP180;4154;48.810;9.012;2023-04-15T09:58:33;96160.00;;;11.70
8227;BMP180;4154;48.810;9.012;2023-04-15T10:01:03;96154.00;;;11.90
8227;BMP180;4154;48.810;9.012;2023-04-15T10:03:34;96167.00;;;12.00
8227;BMP180;4154;48.810;9.012;2023-04-15T10:06:01;96172.00;;;12.00
8227;BMP180;4154;48.810;9.012;2023-04-15T10:08:31;96161.00;;;12.10
8227;BMP180;4154;48.810;9.012;2023-04-15T10:10:58;96154.00;;;12.10
8227;BMP180;4154;48.810;9.012;2023-04-15T10:13:29;96167.00;;;12.20
8227;BMP180;4154;48.810;9.012;2023-04-15T10:16:10;96164.00;;;12.10
8227;BMP180;4154;48.810;9.012;2023-04-15T10:18:42;96163.00;;;12.10
8227;BMP180;4154;48.810;9.012;2023-04-15T10:21:08;96162.00;;;12.30
8227;BMP180;4154;48.810;9.012;2023-04-15T10:23:35;96161.00;;;12.30
8227;BMP180;4154;48.810;9.012;2023-04-15T10:26:03;96165.00;;;12.30
8227;BMP180;4154;48.810;9.012;2023-04-15T10:28:31;96172.00;;;12.30
8227;BMP180;4154;48.810;9.012;2023-04-15T10:30:57;96171.00;;;12.30
8227;BMP180;4154;48.810;9.012;2023-04-15T10:33:25;96176.00;;;12.30
8227;BMP180;4154;48.810;9.012;2023-04-15T10:35:55;96180.00;;;12.30
8227;BMP180;4154;48.810;9.012;2023-04-15T10:41:24;96181.00;;;12.30
8227;BMP180;4154;48.810;9.012;2023-04-15T10:44:02;96187.00;;;12.20
8227;BMP180;4154;48.810;9.012;2023-04-15T10:46:43;96193.00;;;12.20
8227;BMP180;4154;48.810;9.012;2023-04-15T10:49:15;96194.00;;;12.20
8227;BMP180;4154;48.810;9.012;2023-04-15T10:51:50;96185.00;;;12.30
8227;BMP180;4154;48.810;9.012;2023-04-15T10:54:31;96189.00;;;12.40
8227;BMP180;4154;48.810;9.012;2023-04-15T10:59:37;96201.00;;;12.50
8227;BMP180;4154;48.810;9.012;2023-04-15T11:02:05;96194.00;;;12.50
8227;BMP180;4154;48.810;9.012;2023-04-15T11:04:54;96200.00;;;12.50
8227;BMP180;4154;48.810;9.012;2023-04-15T11:12:44;96197.00;;;12.70
8227;BMP180;4154;48.810;9.012;2023-04-15T11:15:42;96196.00;;;12.70
8227;BMP180;4154;48.810;9.012;2023-04-15T11:18:23;96203.00;;;12.70
8227;BMP180;4154;48.810;9.012;2023-04-15T11:20:51;96209.00;;;12.70
8227;BMP180;4154;48.810;9.012;2023-04-15T11:25:54;96200.00;;;12.50
8227;BMP180;4154;48.810;9.012;2023-04-15T11:28:29;96206.00;;;12.50
8227;BMP180;4154;48.810;9.012;2023-04-15T11:30:55;96202.00;;;12.50
8227;BMP180;4154;48.810;9.012;2023-04-15T11:33:23;96211.00;;;12.60
8227;BMP180;4154;48.810;9.012;2023-04-15T11:35:49;96208.00;;;12.70
8227;BMP180;4154;48.810;9.012;2023-04-15T11:38:17;96207.00;;;12.70
8227;BMP180;4154;48.810;9.012;2023-04-15T11:40:43;96215.00;;;12.70
8227;BMP180;4154;48.810;9.012;2023-04-15T11:43:18;96227.00;;;12.80
8227;BMP180;4154;48.810;9.012;2023-04-15T11:45:58;96217.00;;;13.00
8227;BMP180;4154;48.810;9.012;2023-04-15T11:48:35;96222.00;;;13.10
8227;BMP180;4154;48.810;9.012;2023-04-15T11:51:06;96213.00;;;13.10
8227;BMP180;4154;48.810;9.012;2023-04-15T11:53:47;96221.00;;;13.10
8227;BMP180;4154;48.810;9.012;2023-04-15T11:56:22;96231.00;;;13.10
8227;BMP180;4154;48.810;9.012;2023-04-15T11:58:55;96235.00;;;13.10
8227;BMP180;4154;48.810;9.012;2023-04-15T12:01:36;96231.00;;;13.20
8227;BMP180;4154;48.810;9.012;2023-04-15T12:04:16;96237.00;;;13.30
8227;BMP180;4154;48.810;9.012;2023-04-15T12:06:43;96218.00;;;13.30
8227;BMP180;4154;48.810;9.012;2023-04-15T12:14:28;96245.00;;;13.30
8227;BMP180;4154;48.810;9.012;2023-04-15T12:17:05;96243.00;;;13.30
8227;BMP180;4154;48.810;9.012;2023-04-15T12:19:35;96255.00;;;13.10
8227;BMP180;4154;48.810;9.012;2023-04-15T12:22:08;96251.00;;;13.20
8227;BMP180;4154;48.810;9.012;2023-04-15T12:24:36;96253.00;;;13.20
8227;BMP180;4154;48.810;9.012;2023-04-15T12:27:08;96262.00;;;13.10
8227;BMP180;4154;48.810;9.012;2023-04-15T12:29:37;96264.00;;;13.20
8227;BMP180;4154;48.810;9.012;2023-04-15T12:32:12;96290.00;;;13.30
8227;BMP180;4154;48.810;9.012;2023-04-15T12:34:49;96299.00;;;12.90
8227;BMP180;4154;48.810;9.012;2023-04-15T12:37:15;96304.00;;;12.90
8227;BMP180;4154;48.810;9.012;2023-04-15T12:39:43;96310.00;;;12.70
8227;BMP180;4154;48.810;9.012;2023-04-15T12:42:10;96306.00;;;12.70
8227;BMP180;4154;48.810;9.012;2023-04-15T12:44:37;96314.00;;;12.70
8227;BMP180;4154;48.810;9.012;2023-04-15T12:47:04;96322.00;;;12.60
8227;BMP180;4154;48.810;9.012;2023-04-15T12:49:30;96321.00;;;12.70
8227;BMP180;4154;48.810;9.012;2023-04-15T12:51:59;96325.00;;;12.80
8227;BMP180;4154;48.810;9.012;2023-04-15T12:54:26;96335.00;;;12.60
8227;BMP180;4154;48.810;9.012;2023-04-15T12:56:53;96336.00;;;12.50
8227;BMP180;4154;48.810;9.012;2023-04-15T12:59:20;96331.00;;;12.40
8227;BMP180;4154;48.810;9.012;2023-04-15T13:01:47;96340.00;;;12.40
8227;BMP180;4154;48.810;9.012;2023-04-15T13:04:14;96340.00;;;12.40
8227;BMP180;4154;48.810;9.012;2023-04-15T13:06:40;96339.00;;;12.50
8227;BMP180;4154;48.810;9.012;2023-04-15T13:09:06;96340.00;;;12.50
8227;BMP180;4154;48.810;9.012;2023-04-15T13:11:32;96342.00;;;12.40
8227;BMP180;4154;48.810;9.012;2023-04-15T13:14:04;96348.00;;;12.40
8227;BMP180;4154;48.810;9.012;2023-04-15T13:16:30;96357.00;;;12.40
8227;BMP180;4154;48.810;9.012;2023-04-15T13:19:00;96350.00;;;12.20
8227;BMP180;4154;48.810;9.012;2023-04-15T13:21:26;96356.00;;;12.20
8227;BMP180;4154;48.810;9.012;2023-04-15T13:23:53;96353.00;;;12.10
8227;BMP180;4154;48.810;9.012;2023-04-15T13:26:19;96360.00;;;12.00
8227;BMP180;4154;48.810;9.012;2023-04-15T13:28:45;96357.00;;;11.90
8227;BMP180;4154;48.810;9.012;2023-04-15T13:31:11;96359.00;;;11.80
8227;BMP180;4154;48.810;9.012;2023-04-15T13:33:37;96368.00;;;11.90
8227;BMP180;4154;48.810;9.012;2023-04-15T13:36:03;96376.00;;;11.90
8227;BMP180;4154;48.810;9.012;2023-04-15T13:38:28;96373.00;;;11.90
8227;BMP180;4154;48.810;9.012;2023-04-15T13:40:54;96382.00;;;11.90
8227;BMP180;4154;48.810;9.012;2023-04-15T13:43:20;96373.00;;;12.00
8227;BMP180;4154;48.810;9.012;2023-04-15T13:45:46;96375.00;;;11.90
8227;BMP180;4154;48.810;9.012;2023-04-15T13:48:12;96378.00;;;12.00
8227;BMP180;4154;48.810;9.012;2023-04-15T13:50:38;96387.00;;;12.10
8227;BMP180;4154;48.810;9.012;2023-04-15T13:53:04;96389.00;;;12.30
8227;BMP180;4154;48.810;9.012;2023-04-15T13:55:30;96395.00;;;12.40
8227;BMP180;4154;48.810;9.012;2023-04-15T13:57:56;96396.00;;;12.20
8227;BMP180;4154;48.810;9.012;2023-04-15T14:00:22;96384.00;;;12.20
8227;BMP180;4154;48.810;9.012;2023-04-15T14:02:47;96386.00;;;11.90
8227;BMP180;4154;48.810;9.012;2023-04-15T14:05:14;96382.00;;;11.80
8227;BMP180;4154;48.810;9.012;2023-04-15T14:07:40;96393.00;;;11.70
8227;BMP180;4154;48.810;9.012;2023-04-15T14:10:06;96382.00;;;11.70
8227;BMP180;4154;48.810;9.012;2023-04-15T14:12:32;96400.00;;;11.70
8227;BMP180;4154;48.810;9.012;2023-04-15T14:14:58;96404.00;;;11.60
8227;BMP180;4154;48.810;9.012;2023-04-15T14:17:24;96395.00;;;11.60
8227;BMP180;4154;48.810;9.012;2023-04-15T14:19:50;96400.00;;;11.50
8227;BMP180;4154;48.810;9.012;2023-04-15T14:22:16;96393.00;;;11.40
8227;BMP180;4154;48.810;9.012;2023-04-15T14:24:43;96393.00;;;11.40
8227;BMP180;4154;48.810;9.012;2023-04-15T14:27:09;96400.00;;;11.30
8227;BMP180;4154;48.810;9.012;2023-04-15T14:29:37;96409.00;;;11.30
8227;BMP180;4154;48.810;9.012;2023-04-15T14:32:03;96418.00;;;11.20
8227;BMP180;4154;48.810;9.012;2023-04-15T14:34:29;96420.00;;;11.20
8227;BMP180;4154;48.810;9.012;2023-04-15T14:36:55;96422.00;;;11.20
8227;BMP180;4154;48.810;9.012;2023-04-15T14:39:23;96428.00;;;11.20
8227;BMP180;4154;48.810;9.012;2023-04-15T14:41:49;96438.00;;;11.20
8227;BMP180;4154;48.810;9.012;2023-04-15T14:44:14;96438.00;;;11.10
8227;BMP180;4154;48.810;9.012;2023-04-15T14:46:42;96449.00;;;11.10
8227;BMP180;4154;48.810;9.012;2023-04-15T14:49:08;96457.00;;;11.10
8227;BMP180;4154;48.810;9.012;2023-04-15T14:51:33;96465.00;;;11.10
8227;BMP180;4154;48.810;9.012;2023-04-15T14:53:59;96483.00;;;10.90
8227;BMP180;4154;48.810;9.012;2023-04-15T14:56:25;96477.00;;;10.90
8227;BMP180;4154;48.810;9.012;2023-04-15T14:58:51;96465.00;;;10.90